Time;durP1;ratioP1;P1;durP2;ratioP2;P2;SDS_P1;SDS_P2;PMS_P1;PMS_P2;Temp;Humidity;BMP_temperature;BMP_pressure;BME280_temperature;BME280_humidity;BME280_pressure;Samples;Min_cycle;Max_cycle;Signal;HPM_P1;HPM_P2
2023/05/05 00:01:48;;;;;;;4.65;3.20;;;;;;;10.64;98.63;101508.50;5025711;28;20307;-73
2023/05/05 00:04:16;;;;;;;4.57;3.30;;;;;;;10.68;98.36;101512.75;5025947;28;20037;-73
2023/05/05 00:06:42;;;;;;;3.85;2.95;;;;;;;10.69;98.32;101503.88;5022428;28;20946;-73
2023/05/05 00:09:07;;;;;;;4.10;3.28;;;;;;;10.71;98.80;101494.13;5024587;28;20037;-72
2023/05/05 00:11:33;;;;;;;5.30;3.35;;;;;;;10.73;98.93;101494.94;5027789;28;20116;-72
2023/05/05 00:13:59;;;;;;;4.80;3.28;;;;;;;10.76;98.71;101493.06;5029017;28;20090;-73
2023/05/05 00:16:24;;;;;;;4.40;3.40;;;;;;;10.77;98.71;101489.50;5026741;28;20116;-72
2023/05/05 00:18:50;;;;;;;4.85;3.28;;;;;;;10.80;98.79;101485.00;5027779;28;20503;-72
2023/05/05 00:21:16;;;;;;;5.63;3.90;;;;;;;10.81;98.92;101485.84;5029856;28;20181;-72
2023/05/05 00:23:41;;;;;;;5.00;3.17;;;;;;;10.82;98.39;101485.78;5030518;28;20542;-72
2023/05/05 00:26:07;;;;;;;6.25;3.20;;;;;;;10.82;98.63;101480.50;5029617;28;20041;-72
2023/05/05 00:28:32;;;;;;;5.63;3.33;;;;;;;10.84;98.41;101485.75;5028972;28;20128;-72
2023/05/05 00:30:58;;;;;;;5.57;3.63;;;;;;;10.84;98.36;101473.34;5029675;28;20064;-72
2023/05/05 00:33:24;;;;;;;5.80;3.40;;;;;;;10.85;98.58;101471.56;5031078;28;20040;-72
2023/05/05 00:35:50;;;;;;;7.32;3.10;;;;;;;10.84;98.47;101472.50;5030231;28;20098;-73
2023/05/05 00:38:15;;;;;;;3.50;3.15;;;;;;;10.85;98.46;101479.53;5030019;28;20058;-73
2023/05/05 00:40:41;;;;;;;5.47;3.28;;;;;;;10.83;98.10;101462.81;5029007;28;20047;-73
2023/05/05 00:43:07;;;;;;;4.50;3.00;;;;;;;10.83;98.44;101460.16;5042273;28;20056;-73
2023/05/05 00:45:32;;;;;;;5.65;3.15;;;;;;;10.84;98.55;101459.25;5028494;28;20056;-73
2023/05/05 00:47:59;;;;;;;6.03;3.35;;;;;;;10.83;98.50;101454.84;5030053;28;20181;-73
2023/05/05 00:50:27;;;;;;;4.75;3.30;;;;;;;10.82;98.36;101458.44;5026387;28;20037;-73
2023/05/05 00:52:55;;;;;;;6.05;3.13;;;;;;;10.80;98.86;101452.31;5011430;28;20040;-73
2023/05/05 00:55:21;;;;;;;5.70;3.67;;;;;;;10.79;98.50;101458.56;5029136;28;20155;-73
2023/05/05 00:57:48;;;;;;;4.18;3.33;;;;;;;10.77;98.41;101455.06;5028486;28;20033;-73
2023/05/05 01:00:13;;;;;;;4.32;3.47;;;;;;;10.73;98.45;101444.59;5028300;28;20025;-73
2023/05/05 01:02:40;;;;;;;6.35;3.60;;;;;;;10.69;98.50;101442.97;5029657;28;20037;-73
2023/05/05 01:05:07;;;;;;;6.43;3.53;;;;;;;10.67;98.86;101444.81;5030259;28;20063;-73
2023/05/05 01:07:42;;;;;;;5.65;3.40;;;;;;;10.64;99.27;101431.72;5027209;28;20035;-73
2023/05/05 01:10:13;;;;;;;5.80;3.15;;;;;;;10.61;98.99;101434.44;5027207;28;20405;-74
2023/05/05 01:13:18;;;;;;;4.75;3.50;;;;;;;10.56;99.57;101431.09;5029247;28;20499;-73
2023/05/05 01:15:52;;;;;;;8.00;3.42;;;;;;;10.54;99.76;101432.94;5027980;28;20080;-72
2023/05/05 01:18:26;;;;;;;8.20;3.25;;;;;;;10.51;99.72;101423.34;5029867;28;20085;-73
2023/05/05 01:20:57;;;;;;;4.95;3.40;;;;;;;10.48;99.71;101418.16;5029515;28;20792;-73
2023/05/05 01:24:02;;;;;;;5.75;3.70;;;;;;;10.46;100.00;101425.28;5028149;28;21400;-72
2023/05/05 01:26:43;;;;;;;5.25;3.42;;;;;;;10.45;100.00;101426.19;5028406;28;20303;-73
2023/05/05 01:29:21;;;;;;;5.93;3.70;;;;;;;10.44;100.00;101417.41;5028737;28;22075;-73
2023/05/05 01:31:51;;;;;;;5.60;3.90;;;;;;;10.42;100.00;101419.22;5026897;28;20087;-73
2023/05/05 01:34:24;;;;;;;6.80;3.53;;;;;;;10.41;100.00;101414.81;5011689;28;20045;-73
2023/05/05 01:36:56;;;;;;;4.07;3.10;;;;;;;10.42;100.00;101428.94;5029049;28;20083;-73
2023/05/05 01:39:23;;;;;;;6.18;3.92;;;;;;;10.41;100.00;101430.69;5028501;28;20037;-72
2023/05/05 01:41:50;;;;;;;7.78;3.88;;;;;;;10.43;100.00;101417.44;5026639;28;20130;-72
2023/05/05 01:44:18;;;;;;;5.85;3.67;;;;;;;10.45;100.00;101423.56;5028225;28;21028;-72
2023/05/05 01:46:44;;;;;;;4.63;3.67;;;;;;;10.45;100.00;101419.13;5022833;28;20789;-72
2023/05/05 01:49:10;;;;;;;4.97;3.20;;;;;;;10.45;100.00;101413.84;5026387;28;20041;-72
2023/05/05 01:51:36;;;;;;;4.88;3.53;;;;;;;10.45;100.00;101419.13;5028229;28;20534;-73
2023/05/05 01:54:04;;;;;;;4.35;3.58;;;;;;;10.45;100.00;101423.56;5028497;28;20044;-72
2023/05/05 01:56:31;;;;;;;5.18;3.78;;;;;;;10.44;100.00;101433.28;5023906;28;20044;-73
2023/05/05 01:58:57;;;;;;;5.90;3.75;;;;;;;10.44;100.00;101433.28;5007044;28;20076;-73
2023/05/05 02:01:24;;;;;;;5.28;3.63;;;;;;;10.42;100.00;101413.06;5028369;28;20033;-73
2023/05/05 02:03:51;;;;;;;7.63;4.22;;;;;;;10.41;100.00;101400.75;5008057;28;20029;-73
2023/05/05 02:06:18;;;;;;;6.47;3.95;;;;;;;10.39;100.00;101414.03;5026028;28;20033;-73
2023/05/05 02:08:44;;;;;;;4.70;3.90;;;;;;;10.38;100.00;101425.53;5010176;28;21830;-73
2023/05/05 02:11:10;;;;;;;4.95;3.70;;;;;;;10.35;100.00;101428.28;5026354;28;20041;-73
2023/05/05 02:13:37;;;;;;;8.30;4.10;;;;;;;10.35;100.00;101425.63;5026691;28;20037;-73
2023/05/05 02:16:03;;;;;;;5.63;3.90;;;;;;;10.34;100.00;101429.19;5027048;28;20033;-73
2023/05/05 02:18:32;;;;;;;4.57;3.63;;;;;;;10.32;100.00;101431.03;5027723;28;20147;-73
2023/05/05 02:20:57;;;;;;;9.57;4.32;;;;;;;10.31;100.00;101434.59;5027831;28;20132;-73
2023/05/05 02:23:24;;;;;;;5.57;3.97;;;;;;;10.30;100.00;101430.25;5027962;28;20041;-73
2023/05/05 02:25:52;;;;;;;6.22;3.92;;;;;;;10.28;100.00;101419.69;5027689;28;20065;-73
2023/05/05 02:28:21;;;;;;;9.73;4.35;;;;;;;10.27;100.00;101422.38;5011514;28;20041;-73
2023/05/05 02:30:56;;;;;;;6.50;4.20;;;;;;;10.26;100.00;101428.59;5027343;28;20032;-73
2023/05/05 02:33:22;;;;;;;8.63;4.05;;;;;;;10.24;100.00;101428.66;5027847;28;20399;-73
2023/05/05 02:35:48;;;;;;;6.18;3.72;;;;;;;10.25;100.00;101429.53;5027149;28;21762;-73
2023/05/05 02:38:18;;;;;;;6.95;4.30;;;;;;;10.24;100.00;101419.88;5026818;28;20037;-73
2023/05/05 02:40:44;;;;;;;10.70;4.70;;;;;;;10.23;100.00;101420.78;5027679;28;20064;-73
2023/05/05 02:43:14;;;;;;;7.20;4.03;;;;;;;10.21;100.00;101415.53;5024724;28;20045;-73
2023/05/05 02:45:40;;;;;;;6.18;3.97;;;;;;;10.19;100.00;101423.53;5026844;28;20055;-73
2023/05/05 02:48:05;;;;;;;7.30;4.82;;;;;;;10.19;100.00;101425.31;5024195;28;20041;-73
2023/05/05 02:50:31;;;;;;;5.15;3.60;;;;;;;10.18;100.00;101432.38;5024301;28;20052;-73
2023/05/05 02:52:58;;;;;;;5.53;4.28;;;;;;;10.18;100.00;101437.66;5027969;28;20037;-73
2023/05/05 02:55:25;;;;;;;6.88;4.47;;;;;;;10.19;100.00;101444.69;5027131;28;21405;-73
2023/05/05 02:58:05;;;;;;;6.03;4.40;;;;;;;10.21;100.00;101451.69;5024584;28;20544;-73
2023/05/05 03:00:44;;;;;;;5.20;4.22;;;;;;;10.22;100.00;101453.44;5026091;28;20506;-73
2023/05/05 03:03:54;;;;;;;6.85;4.00;;;;;;;10.22;100.00;101464.88;5024956;28;20059;-73
2023/05/05 03:06:21;;;;;;;10.05;4.50;;;;;;;10.22;100.00;101461.38;5022227;28;20098;-72
2023/05/05 03:08:55;;;;;;;7.53;4.13;;;;;;;10.23;100.00;101468.41;5006073;28;20080;-73
2023/05/05 03:11:33;;;;;;;7.28;4.60;;;;;;;10.23;100.00;101482.50;5017535;28;20067;-73
2023/05/05 03:14:08;;;;;;;7.13;4.32;;;;;;;10.23;100.00;101502.81;5026849;28;20333;-74
2023/05/05 03:16:35;;;;;;;5.93;4.72;;;;;;;10.23;100.00;101492.22;5027622;28;20199;-74
2023/05/05 03:19:02;;;;;;;8.00;4.97;;;;;;;10.21;100.00;101494.03;5025909;28;20126;-74
2023/05/05 03:21:27;;;;;;;8.45;5.15;;;;;;;10.21;100.00;101499.34;5026738;28;20036;-74
2023/05/05 03:23:53;;;;;;;7.80;5.28;;;;;;;10.17;100.00;101501.22;5026412;28;20037;-72
2023/05/05 03:26:18;;;;;;;8.20;4.88;;;;;;;10.12;100.00;101504.03;5027796;28;20611;-72
2023/05/05 03:28:44;;;;;;;8.50;5.45;;;;;;;10.07;100.00;101491.88;5025534;28;20041;-72
2023/05/05 03:31:10;;;;;;;9.48;6.00;;;;;;;10.01;100.00;101482.34;5026665;28;20045;-72
2023/05/05 03:33:35;;;;;;;9.95;5.75;;;;;;;9.97;100.00;101467.50;5024190;28;20044;-71
2023/05/05 03:36:01;;;;;;;9.23;5.57;;;;;;;9.90;100.00;101472.13;5023196;28;20043;-72
2023/05/05 03:38:26;;;;;;;10.45;5.85;;;;;;;9.88;100.00;101471.31;5027310;28;20032;-72
2023/05/05 03:40:52;;;;;;;9.90;6.07;;;;;;;9.83;100.00;101482.03;5026491;28;20029;-72
2023/05/05 03:43:18;;;;;;;9.27;6.30;;;;;;;9.80;100.00;101495.34;5026043;28;20531;-72
2023/05/05 03:45:44;;;;;;;10.65;6.07;;;;;;;9.75;100.00;101479.63;5025814;28;20041;-72
2023/05/05 03:48:09;;;;;;;8.65;6.10;;;;;;;9.72;100.00;101463.00;4977042;28;20091;-72
2023/05/05 03:50:35;;;;;;;9.20;6.53;;;;;;;9.67;100.00;101430.53;5024327;28;20037;-72
2023/05/05 03:53:01;;;;;;;10.38;6.22;;;;;;;9.65;100.00;101393.59;5024813;28;20448;-72
2023/05/05 03:55:26;;;;;;;11.57;6.28;;;;;;;9.61;100.00;101406.06;5025300;28;20200;-71
2023/05/05 03:57:52;;;;;;;9.25;6.18;;;;;;;9.56;100.00;101430.88;5026234;28;20278;-71
2023/05/05 04:00:18;;;;;;;11.00;6.93;;;;;;;9.54;100.00;101452.13;5025589;28;20181;-71
2023/05/05 04:02:43;;;;;;;10.27;6.45;;;;;;;9.51;100.00;101452.19;5009485;28;20041;-71
2023/05/05 04:05:09;;;;;;;9.45;6.68;;;;;;;9.43;100.00;101428.63;5025002;28;20041;-71
2023/05/05 04:07:34;;;;;;;9.88;6.55;;;;;;;9.29;100.00;101413.22;5025892;28;20140;-72
2023/05/05 04:10:00;;;;;;;9.65;5.90;;;;;;;9.21;100.00;101420.53;5025895;28;20036;-72
2023/05/05 04:12:26;;;;;;;9.20;6.38;;;;;;;9.14;100.00;101434.84;5026699;28;20029;-73
2023/05/05 04:14:51;;;;;;;8.52;6.15;;;;;;;9.07;100.00;101440.28;5026206;28;20091;-71
2023/05/05 04:17:17;;;;;;;12.10;7.13;;;;;;;9.05;100.00;101454.44;5024033;28;20127;-72
2023/05/05 04:19:42;;;;;;;9.48;7.05;;;;;;;9.05;100.00;101452.66;5026629;28;20031;-72
2023/05/05 04:22:08;;;;;;;12.38;7.90;;;;;;;9.05;100.00;101446.53;5026148;28;20120;-71
2023/05/05 04:24:33;;;;;;;12.15;6.78;;;;;;;9.01;100.00;101434.31;5023112;28;20025;-72
2023/05/05 04:26:59;;;;;;;12.23;6.82;;;;;;;9.01;100.00;101427.28;5024020;28;20112;-71
2023/05/05 04:29:25;;;;;;;11.43;6.90;;;;;;;9.03;100.00;101421.91;5026435;28;20547;-72
2023/05/05 04:31:51;;;;;;;12.20;7.45;;;;;;;9.04;100.00;101437.72;5026126;28;20122;-72
2023/05/05 04:34:16;;;;;;;13.52;6.97;;;;;;;9.02;100.00;101449.25;5025869;28;20051;-72
2023/05/05 04:36:42;;;;;;;10.95;7.28;;;;;;;9.01;100.00;101453.69;5025821;28;20033;-72
2023/05/05 04:39:07;;;;;;;14.30;7.53;;;;;;;9.01;100.00;101464.25;5026078;28;20041;-72
2023/05/05 04:41:33;;;;;;;17.40;8.20;;;;;;;8.98;100.00;101458.19;5025702;28;20033;-72
2023/05/05 04:43:58;;;;;;;11.38;7.28;;;;;;;9.01;100.00;101469.53;5026514;28;20128;-71
2023/05/05 04:46:24;;;;;;;12.93;8.27;;;;;;;9.02;100.00;101470.38;5023741;28;20037;-72
2023/05/05 04:48:50;;;;;;;13.60;7.88;;;;;;;9.03;100.00;101494.13;5025064;28;20902;-72
2023/05/05 04:51:15;;;;;;;12.35;7.80;;;;;;;9.01;100.00;101495.94;5023817;28;20178;-73
2023/05/05 04:53:41;;;;;;;10.55;7.07;;;;;;;9.01;100.00;101495.94;5025926;28;20094;-73
2023/05/05 04:56:06;;;;;;;11.70;7.88;;;;;;;9.02;100.00;101497.66;5021665;28;20381;-73
2023/05/05 04:58:32;;;;;;;12.07;7.57;;;;;;;9.01;100.00;101493.28;5029929;28;20044;-73
2023/05/05 05:00:57;;;;;;;12.60;8.05;;;;;;;9.01;100.00;101495.06;5028853;28;20447;-73
2023/05/05 05:03:23;;;;;;;11.18;8.02;;;;;;;9.00;100.00;101488.06;5012160;28;20041;-72
2023/05/05 05:05:48;;;;;;;11.82;7.97;;;;;;;9.01;100.00;101498.59;5028260;28;20044;-73
2023/05/05 05:08:15;;;;;;;12.00;8.55;;;;;;;9.01;100.00;101495.06;5028943;28;20041;-71
2023/05/05 05:10:41;;;;;;;12.35;8.20;;;;;;;9.00;100.00;101504.78;5010857;28;20039;-72
2023/05/05 05:13:06;;;;;;;11.30;7.82;;;;;;;9.00;100.00;101504.78;5027815;28;20044;-73
2023/05/05 05:15:32;;;;;;;13.20;8.63;;;;;;;8.98;100.00;101511.84;5027653;28;20045;-72
2023/05/05 05:17:57;;;;;;;12.52;8.65;;;;;;;8.98;100.00;101518.94;5028596;28;20041;-72
2023/05/05 05:20:23;;;;;;;14.02;8.80;;;;;;;9.01;100.00;101522.34;5027726;28;20045;-72
2023/05/05 05:22:48;;;;;;;15.00;8.00;;;;;;;9.02;100.00;101524.06;5028796;28;20025;-72
2023/05/05 05:25:14;;;;;;;12.38;8.48;;;;;;;9.02;100.00;101525.84;5029096;28;20090;-72
2023/05/05 05:27:40;;;;;;;16.35;8.20;;;;;;;8.99;100.00;101534.72;5027342;28;20049;-72
2023/05/05 05:30:07;;;;;;;13.70;8.93;;;;;;;8.97;100.00;101539.19;5029225;28;20112;-72
2023/05/05 05:32:32;;;;;;;12.48;7.63;;;;;;;8.96;100.00;101540.09;5028017;28;20041;-72
2023/05/05 05:34:58;;;;;;;13.30;8.63;;;;;;;8.95;100.00;101546.28;5027897;28;20059;-72
2023/05/05 05:37:27;;;;;;;12.68;7.70;;;;;;;8.94;100.00;101539.28;5028889;28;20115;-72
2023/05/05 05:39:53;;;;;;;11.80;8.35;;;;;;;8.93;100.00;101538.41;5027153;28;20034;-72
2023/05/05 05:42:18;;;;;;;11.63;7.72;;;;;;;8.93;100.00;101540.19;5028641;28;20515;-72
2023/05/05 05:44:44;;;;;;;13.02;8.73;;;;;;;8.96;100.00;101530.41;5024676;28;20714;-72
2023/05/05 05:47:10;;;;;;;13.13;8.77;;;;;;;9.00;100.00;101536.47;5025674;28;20116;-72
2023/05/05 05:49:35;;;;;;;12.40;7.93;;;;;;;9.03;100.00;101546.94;5028471;28;20041;-72
2023/05/05 05:52:01;;;;;;;17.02;9.43;;;;;;;9.14;100.00;101556.34;5028719;28;20033;-72
2023/05/05 05:54:26;;;;;;;15.00;9.18;;;;;;;9.24;100.00;101555.16;5026827;28;20425;-72
2023/05/05 05:56:52;;;;;;;17.85;9.48;;;;;;;9.37;100.00;101550.38;5008978;28;20521;-72
2023/05/05 05:59:17;;;;;;;15.88;9.25;;;;;;;9.55;100.00;101546.34;5009549;28;20043;-72
2023/05/05 06:01:43;;;;;;;18.98;9.48;;;;;;;9.76;100.00;101546.63;5028019;28;20487;-73
2023/05/05 06:04:09;;;;;;;16.45;10.20;;;;;;;9.98;100.00;101548.59;5027352;28;20029;-72
2023/05/05 06:06:34;;;;;;;15.10;9.75;;;;;;;10.17;100.00;101549.72;5028588;28;20504;-72
2023/05/05 06:09:00;;;;;;;15.90;10.15;;;;;;;10.40;100.00;101552.53;5027245;28;20124;-72
2023/05/05 06:11:25;;;;;;;16.98;10.35;;;;;;;10.62;100.00;101542.09;5027891;28;20078;-72
2023/05/05 06:13:51;;;;;;;15.88;10.20;;;;;;;10.83;100.00;101550.22;5027483;28;20033;-72
2023/05/05 06:16:16;;;;;;;18.38;10.30;;;;;;;11.00;100.00;101550.47;5025868;28;20039;-72
2023/05/05 06:18:42;;;;;;;14.90;9.85;;;;;;;11.22;100.00;101546.19;5043034;28;20399;-73
2023/05/05 06:21:07;;;;;;;17.02;9.60;;;;;;;11.35;100.00;101551.91;5027041;28;20083;-73
2023/05/05 06:23:35;;;;;;;17.00;9.55;;;;;;;11.34;100.00;101563.44;5028094;28;20076;-73
2023/05/05 06:26:00;;;;;;;12.55;9.02;;;;;;;11.41;100.00;101554.31;5028411;28;20107;-73
2023/05/05 06:28:29;;;;;;;12.52;8.30;;;;;;;11.55;100.00;101559.97;5027283;28;20025;-73
2023/05/05 06:30:55;;;;;;;14.80;8.88;;;;;;;11.72;100.00;101560.25;5027754;28;20041;-73
2023/05/05 06:33:20;;;;;;;12.55;8.48;;;;;;;11.89;100.00;101564.88;5025856;28;20175;-73
2023/05/05 06:35:48;;;;;;;12.75;8.10;;;;;;;12.02;100.00;101563.47;5025613;28;20083;-73
2023/05/05 06:38:14;;;;;;;13.52;8.48;;;;;;;12.22;100.00;101565.34;5028389;28;20054;-73
2023/05/05 06:40:39;;;;;;;11.77;8.05;;;;;;;12.42;100.00;101565.47;5027078;28;20454;-73
2023/05/05 06:43:05;;;;;;;10.93;7.85;;;;;;;12.59;100.00;101562.94;5026167;28;20049;-72
2023/05/05 06:45:30;;;;;;;12.65;8.00;;;;;;;12.74;100.00;101571.19;5027867;28;20706;-72
2023/05/05 06:47:56;;;;;;;11.15;7.80;;;;;;;12.89;100.00;101559.91;5022849;28;20333;-72
2023/05/05 06:50:21;;;;;;;11.50;7.25;;;;;;;13.07;100.00;101561.81;5027300;28;20117;-73
2023/05/05 06:52:47;;;;;;;11.55;7.88;;;;;;;13.21;100.00;101564.72;5027461;28;20498;-73
2023/05/05 06:55:12;;;;;;;11.85;8.38;;;;;;;13.35;100.00;101558.75;5025548;28;20388;-73
2023/05/05 06:57:38;;;;;;;11.63;7.50;;;;;;;13.53;100.00;101559.75;5026696;28;20056;-73
2023/05/05 07:00:04;;;;;;;13.57;8.02;;;;;;;13.68;100.00;101562.63;5022279;28;20029;-73
2023/05/05 07:02:30;;;;;;;13.23;8.30;;;;;;;13.81;100.00;101565.56;5027383;28;20156;-72
2023/05/05 07:04:56;;;;;;;11.57;8.48;;;;;;;13.92;100.00;101562.38;5027065;28;20041;-73
2023/05/05 07:07:22;;;;;;;11.93;8.02;;;;;;;14.01;100.00;101566.41;5027578;28;20131;-73
2023/05/05 07:09:47;;;;;;;10.98;7.82;;;;;;;14.09;100.00;101575.75;5027244;28;20041;-72
2023/05/05 07:12:13;;;;;;;10.68;8.05;;;;;;;14.13;100.00;101584.44;5027368;28;20104;-72
2023/05/05 07:14:38;;;;;;;10.20;8.00;;;;;;;14.19;100.00;101589.47;5027218;28;20384;-72
2023/05/05 07:17:04;;;;;;;11.93;8.02;;;;;;;14.29;100.00;101589.88;5027390;28;20065;-72
2023/05/05 07:19:29;;;;;;;10.25;7.65;;;;;;;14.46;100.00;101593.50;5026327;28;20082;-73
2023/05/05 07:21:55;;;;;;;13.80;8.73;;;;;;;14.63;100.00;101595.31;5027540;28;20059;-73
2023/05/05 07:24:22;;;;;;;12.57;8.32;;;;;;;14.75;100.00;101591.19;5027075;28;20040;-73
2023/05/05 07:26:47;;;;;;;11.93;8.40;;;;;;;14.79;100.00;101582.09;5024525;28;20037;-73
2023/05/05 07:29:13;;;;;;;11.30;8.07;;;;;;;14.78;100.00;101591.03;5025498;28;20134;-73
2023/05/05 07:31:38;;;;;;;11.50;7.97;;;;;;;14.79;100.00;101593.63;5025255;28;21819;-73
2023/05/05 07:34:04;;;;;;;12.75;8.55;;;;;;;14.86;100.00;101594.16;5026380;28;20048;-73
2023/05/05 07:36:31;;;;;;;12.18;8.88;;;;;;;14.93;100.00;101597.41;5025262;28;20483;-73
2023/05/05 07:38:56;;;;;;;10.55;8.57;;;;;;;15.06;100.00;101586.94;5026419;28;20095;-73
2023/05/05 07:41:22;;;;;;;10.43;8.00;;;;;;;15.15;100.00;101594.44;5026042;28;20474;-73
2023/05/05 07:43:47;;;;;;;12.65;8.40;;;;;;;15.15;100.00;101596.25;5009458;28;20547;-73
2023/05/05 07:46:13;;;;;;;11.68;8.65;;;;;;;15.17;100.00;101595.25;5027019;28;20051;-73
2023/05/05 07:48:40;;;;;;;11.27;8.60;;;;;;;15.30;100.00;101608.78;5027284;28;20519;-73
2023/05/05 07:51:05;;;;;;;10.75;8.18;;;;;;;15.40;100.00;101603.81;5038665;28;20040;-73
2023/05/05 07:53:31;;;;;;;12.50;8.43;;;;;;;15.45;100.00;101600.88;5026991;28;20525;-73
2023/05/05 07:55:57;;;;;;;12.45;8.60;;;;;;;15.52;100.00;101602.28;5008397;28;20033;-73
2023/05/05 07:58:22;;;;;;;13.88;9.00;;;;;;;15.57;100.00;101605.56;5023746;28;20032;-73
2023/05/05 08:00:49;;;;;;;12.85;9.65;;;;;;;15.53;100.00;101606.66;5025635;28;20041;-73
2023/05/05 08:03:14;;;;;;;14.95;9.85;;;;;;;15.54;100.00;101602.19;5023260;28;20041;-73
2023/05/05 08:05:40;;;;;;;15.40;9.35;;;;;;;15.52;100.00;101601.44;5025952;28;20095;-73
2023/05/05 08:08:06;;;;;;;14.73;9.65;;;;;;;15.54;100.00;101607.53;5026578;28;20068;-73
2023/05/05 08:10:31;;;;;;;13.20;9.88;;;;;;;15.54;100.00;101619.09;5024285;28;20499;-73
2023/05/05 08:12:57;;;;;;;12.75;9.55;;;;;;;15.53;100.00;101612.00;5007995;28;22095;-74
2023/05/05 08:15:22;;;;;;;13.80;10.05;;;;;;;15.47;100.00;101612.31;5022191;28;20242;-74
2023/05/05 08:17:50;;;;;;;15.18;10.10;;;;;;;15.45;100.00;101622.22;5026118;28;20068;-74
2023/05/05 08:20:17;;;;;;;17.38;9.65;;;;;;;15.43;100.00;101621.47;5023364;28;20480;-74
2023/05/05 08:22:43;;;;;;;13.88;9.88;;;;;;;15.40;100.00;101609.16;5019233;28;20076;-74
2023/05/05 08:25:12;;;;;;;14.65;10.52;;;;;;;15.40;100.00;101608.28;5020694;28;20040;-74
2023/05/05 08:27:38;;;;;;;14.02;9.95;;;;;;;15.44;100.00;101615.19;5024348;28;20132;-73
2023/05/05 08:30:04;;;;;;;14.63;10.30;;;;;;;15.44;100.00;101609.84;5025790;28;20033;-73
2023/05/05 08:32:31;;;;;;;15.30;10.82;;;;;;;15.43;100.00;101606.28;5026754;28;20163;-74
2023/05/05 08:34:56;;;;;;;15.57;10.35;;;;;;;15.43;100.00;101608.13;5028740;28;20496;-74
2023/05/05 08:37:22;;;;;;;15.57;11.18;;;;;;;15.49;100.00;101605.13;5028785;28;20044;-74
2023/05/05 08:39:47;;;;;;;15.98;10.98;;;;;;;15.61;100.00;101599.13;5028355;28;20679;-74
2023/05/05 08:42:13;;;;;;;15.60;10.98;;;;;;;15.73;100.00;101597.56;5029512;28;20025;-74
2023/05/05 08:44:38;;;;;;;17.67;11.80;;;;;;;15.83;100.00;101603.28;5028570;28;20561;-73
2023/05/05 08:47:05;;;;;;;17.58;11.70;;;;;;;15.94;100.00;101601.81;4996069;28;21006;-74
2023/05/05 08:49:34;;;;;;;20.20;12.70;;;;;;;16.10;100.00;101604.50;5028771;28;20040;-72
2023/05/05 08:52:00;;;;;;;19.63;12.65;;;;;;;16.22;100.00;101608.25;5029726;28;20134;-73
2023/05/05 08:54:29;;;;;;;18.30;11.98;;;;;;;16.26;100.00;101615.16;5012403;28;20037;-72
2023/05/05 08:56:56;;;;;;;16.33;11.90;;;;;;;16.28;100.00;101611.47;5028685;28;20480;-73
2023/05/05 08:59:23;;;;;;;16.88;12.07;;;;;;;16.35;100.00;101611.94;5030824;28;20650;-72
2023/05/05 09:01:50;;;;;;;19.60;11.90;;;;;;;16.47;100.00;101618.41;5028373;28;20048;-72
2023/05/05 09:04:17;;;;;;;17.77;11.95;;;;;;;16.65;100.00;101620.94;5024961;28;20112;-73
2023/05/05 09:06:43;;;;;;;16.00;10.07;;;;;;;16.72;100.00;101618.78;5012288;28;20068;-72
2023/05/05 09:09:09;;;;;;;17.88;11.30;;;;;;;16.71;100.00;101612.56;5029846;28;20127;-73
2023/05/05 09:11:35;;;;;;;17.35;10.65;;;;;;;16.85;100.00;101614.44;5028455;28;20061;-73
2023/05/05 09:14:01;;;;;;;18.08;10.68;;;;;;;17.03;100.00;101624.97;5017504;28;20041;-72
2023/05/05 09:16:26;;;;;;;18.30;10.32;;;;;;;17.23;100.00;101624.63;5025774;28;20408;-72
2023/05/05 09:19:02;;;;;;;17.50;9.40;;;;;;;17.33;100.00;101634.78;5028009;28;20160;-73
2023/05/05 09:21:28;;;;;;;16.42;10.73;;;;;;;17.38;100.00;101630.84;5028521;28;20029;-73
2023/05/05 09:24:07;;;;;;;15.40;9.93;;;;;;;17.46;100.00;101635.75;5029882;28;20435;-73
2023/05/05 09:26:35;;;;;;;17.67;10.48;;;;;;;17.52;100.00;101639.84;5029889;28;20052;-72
2023/05/05 09:29:01;;;;;;;16.67;9.95;;;;;;;17.49;100.00;101646.25;5027684;28;20041;-73
2023/05/05 09:31:29;;;;;;;10.82;6.60;;;;;;;17.42;100.00;101634.19;5027736;28;20080;-73
2023/05/05 09:33:55;;;;;;;14.05;8.30;;;;;;;17.38;100.00;101638.88;5028016;28;20044;-73
2023/05/05 09:36:40;;;;;;;14.13;7.50;;;;;;;17.35;100.00;101648.91;5027623;28;20055;-73
2023/05/05 09:39:06;;;;;;;12.00;8.07;;;;;;;17.24;100.00;101650.44;5027701;28;20041;-73
2023/05/05 09:41:39;;;;;;;14.05;7.93;;;;;;;17.26;100.00;101657.53;5029279;28;20090;-73
2023/05/05 09:44:05;;;;;;;12.75;7.45;;;;;;;17.29;100.00;101647.50;5027019;28;20067;-73
2023/05/05 09:46:31;;;;;;;14.27;8.20;;;;;;;17.46;100.00;101643.78;5029493;28;20043;-73
2023/05/05 09:49:17;;;;;;;14.43;8.45;;;;;;;17.72;100.00;101652.00;5010646;28;20037;-73
2023/05/05 09:51:44;;;;;;;15.20;9.15;;;;;;;17.89;100.00;101650.03;5029623;28;20037;-73
2023/05/05 09:54:25;;;;;;;15.32;9.38;;;;;;;17.92;100.00;101640.00;5027604;28;20041;-73
2023/05/05 09:56:51;;;;;;;13.55;8.45;;;;;;;17.94;100.00;101647.94;5028243;28;20152;-72
2023/05/05 09:59:17;;;;;;;11.80;7.68;;;;;;;18.16;100.00;101644.78;5022871;28;20142;-72
2023/05/05 10:01:43;;;;;;;12.05;7.55;;;;;;;18.28;100.00;101640.41;5028090;28;20040;-72
2023/05/05 10:04:28;;;;;;;11.95;7.38;;;;;;;18.39;100.00;101634.34;5026998;28;20044;-72
2023/05/05 10:06:55;;;;;;;11.77;6.43;;;;;;;18.44;100.00;101642.09;5026739;28;20139;-72
2023/05/05 10:09:22;;;;;;;8.80;5.07;;;;;;;18.39;100.00;101639.72;5026602;28;20175;-71
2023/05/05 10:11:48;;;;;;;8.40;5.20;;;;;;;18.38;100.00;101640.69;5008503;28;20041;-72
2023/05/05 10:14:14;;;;;;;8.25;5.60;;;;;;;18.44;100.00;101634.91;5026020;28;20036;-72
2023/05/05 10:16:49;;;;;;;6.63;4.18;;;;;;;18.51;100.00;101629.97;5020423;28;20037;-72
2023/05/05 10:19:16;;;;;;;6.13;3.42;;;;;;;18.49;100.00;101623.88;5027850;28;20039;-72
2023/05/05 10:21:52;;;;;;;6.00;3.60;;;;;;;18.50;100.00;101616.69;5026965;28;20041;-72
2023/05/05 10:24:35;;;;;;;5.47;3.42;;;;;;;18.47;100.00;101620.44;5024844;28;20286;-72
2023/05/05 10:27:02;;;;;;;7.10;4.20;;;;;;;18.55;100.00;101631.50;5027044;28;20086;-72
2023/05/05 10:29:33;;;;;;;7.43;4.15;;;;;;;18.54;100.00;101627.13;5039000;28;20791;-72
2023/05/05 10:32:05;;;;;;;7.07;4.47;;;;;;;18.57;98.36;101632.25;5027558;28;20032;-72
2023/05/05 10:34:50;;;;;;;6.68;4.25;;;;;;;18.63;100.00;101635.50;5026587;28;20124;-72
2023/05/05 10:37:17;;;;;;;6.38;4.28;;;;;;;18.63;99.60;101636.34;5009707;28;20040;-72
2023/05/05 10:39:43;;;;;;;6.60;5.03;;;;;;;18.63;91.37;101641.69;5025127;28;20045;-72
2023/05/05 10:42:11;;;;;;;9.25;5.07;;;;;;;18.55;94.09;101631.50;5027577;28;20044;-72
2023/05/05 10:44:37;;;;;;;8.80;5.65;;;;;;;18.51;94.49;101624.63;5025763;28;20032;-72
2023/05/05 10:47:03;;;;;;;6.55;4.38;;;;;;;18.47;98.21;101623.13;5025418;28;20039;-72
2023/05/05 10:49:41;;;;;;;8.40;5.20;;;;;;;18.43;96.26;101621.59;5025137;28;20041;-72
2023/05/05 10:52:29;;;;;;;9.40;5.10;;;;;;;18.40;97.90;101617.31;5026845;28;20057;-73
2023/05/05 10:55:01;;;;;;;9.23;5.05;;;;;;;18.38;98.36;101615.69;5026827;28;20304;-73
2023/05/05 10:57:27;;;;;;;;;;;;;;;18.26;94.43;101612.00;5027269;28;20045;-73
2023/05/05 10:59:53;;;;;;;9.25;5.63;;;;;;;18.18;99.04;101607.13;5025647;28;20005;-73
2023/05/05 11:02:22;;;;;;;8.88;5.10;;;;;;;18.13;100.00;101611.94;5027073;28;20044;-73
2023/05/05 11:05:20;;;;;;;8.05;5.25;;;;;;;18.06;100.00;101614.16;5018859;28;20102;-73
2023/05/05 11:08:23;;;;;;;8.00;5.18;;;;;;;18.03;100.00;101606.31;5022871;28;20085;-72
2023/05/05 11:10:49;;;;;;;7.40;5.70;;;;;;;18.04;100.00;101602.66;5025883;28;20041;-73
2023/05/05 11:13:18;;;;;;;7.95;5.53;;;;;;;18.05;100.00;101602.56;5026667;28;20051;-73
2023/05/05 11:15:43;;;;;;;8.10;5.32;;;;;;;18.05;100.00;101607.94;5025061;28;20025;-73
2023/05/05 11:18:34;;;;;;;9.93;6.40;;;;;;;18.02;98.00;101602.75;5025095;28;20040;-73